Time;durP1;ratioP1;P1;durP2;ratioP2;P2;SDS_P1;SDS_P2;PMS_P1;PMS_P2;Temp;Humidity;BMP_temperature;BMP_pressure;BME280_temperature;BME280_humidity;BME280_pressure;Samples;Min_cycle;Max_cycle;Signal;HPM_P1;HPM_P2
2023/10/15 00:00:26;;;;;;;6.72;2.30;;;;;;;;;;4920693;29;20600;-60
2023/10/15 00:02:53;;;;;;;3.60;1.75;;;;;;;;;;4917953;29;20452;-60
2023/10/15 00:05:27;;;;;;;5.65;1.30;;;;;;;;;;4922772;29;20435;-60
2023/10/15 00:07:57;;;;;;;3.72;1.17;;;;;;;;;;4923058;29;20562;-60
2023/10/15 00:10:30;;;;;;;2.92;1.05;;;;;;;;;;4921073;29;20444;-60
2023/10/15 00:12:59;;;;;;;3.35;1.30;;;;;;;;;;4926942;29;20532;-60
2023/10/15 00:15:30;;;;;;;4.57;1.05;;;;;;;;;;4919590;29;20439;-60
2023/10/15 00:18:02;;;;;;;2.13;1.00;;;;;;;;;;4922548;29;20574;-60
2023/10/15 00:20:35;;;;;;;3.47;1.23;;;;;;;;;;4915256;29;20466;-60
2023/10/15 00:23:05;;;;;;;2.80;1.17;;;;;;;;;;4925965;29;20452;-60
2023/10/15 00:25:37;;;;;;;3.87;1.77;;;;;;;;;;4924285;29;20450;-60
2023/10/15 00:28:15;;;;;;;35.75;33.20;;;;;;;;;;4918746;29;20479;-60
2023/10/15 00:30:45;;;;;;;166.48;150.63;;;;;;;;;;4923601;29;20812;-60
2023/10/15 00:33:12;;;;;;;58.33;54.30;;;;;;;;;;4925311;29;20445;-60
2023/10/15 00:35:44;;;;;;;51.88;48.55;;;;;;;;;;4918713;29;20452;-60
2023/10/15 00:38:19;;;;;;;60.17;55.03;;;;;;;;;;4923248;29;20941;-60
2023/10/15 00:40:51;;;;;;;239.32;216.93;;;;;;;;;;4921394;29;20448;-60
2023/10/15 00:43:21;;;;;;;62.65;58.60;;;;;;;;;;4919544;29;20449;-60
2023/10/15 00:45:49;;;;;;;58.83;54.80;;;;;;;;;;4919479;29;20551;-60
2023/10/15 00:48:36;;;;;;;58.42;54.28;;;;;;;;;;4919581;29;20475;-60
2023/10/15 00:51:09;;;;;;;110.68;101.28;;;;;;;;;;4915626;29;20503;-60
2023/10/15 00:53:42;;;;;;;107.28;99.63;;;;;;;;;;4929498;29;20439;-60
2023/10/15 00:56:11;;;;;;;15.53;14.23;;;;;;;;;;4925231;29;20546;-60
2023/10/15 01:03:51;;;;;;;5.63;2.40;;;;;;;;;;4921231;29;20447;-60
2023/10/15 01:06:29;;;;;;;5.27;2.27;;;;;;;;;;4911713;29;20451;-60
2023/10/15 01:09:08;;;;;;;9.90;2.77;;;;;;;;;;4919391;29;20441;-60
2023/10/15 01:11:36;;;;;;;11.00;2.60;;;;;;;;;;4920642;29;20475;-60
2023/10/15 01:14:10;;;;;;;8.32;2.53;;;;;;;;;;4924682;29;20440;-60
2023/10/15 01:16:39;;;;;;;5.60;2.10;;;;;;;;;;4920963;29;20539;-60
2023/10/15 01:21:49;;;;;;;6.83;1.83;;;;;;;;;;4919994;29;20532;-60
2023/10/15 01:24:19;;;;;;;5.68;1.50;;;;;;;;;;4906274;29;20429;-60
2023/10/15 01:26:59;;;;;;;3.42;1.92;;;;;;;;;;4924458;29;20443;-60
2023/10/15 01:29:28;;;;;;;7.40;1.83;;;;;;;;;;4920627;29;20899;-60
2023/10/15 01:32:08;;;;;;;2.42;1.85;;;;;;;;;;4923040;29;20443;-61
2023/10/15 01:34:38;;;;;;;3.17;1.90;;;;;;;;;;4917140;29;20449;-61
2023/10/15 01:42:40;;;;;;;3.80;1.73;;;;;;;;;;4851394;29;20848;-60
2023/10/15 01:47:53;;;;;;;7.22;1.95;;;;;;;;;;4850203;29;20449;-61
2023/10/15 01:50:24;;;;;;;4.85;1.73;;;;;;;;;;4852169;29;20473;-62
2023/10/15 01:52:54;;;;;;;4.95;1.60;;;;;;;;;;4850398;29;20538;-60
2023/10/15 01:55:28;;;;;;;4.25;1.30;;;;;;;;;;4849703;29;20450;-60
2023/10/15 01:58:03;;;;;;;6.20;1.70;;;;;;;;;;4849093;29;20446;-60
2023/10/15 02:00:34;;;;;;;4.07;1.73;;;;;;;;;;4848012;29;20452;-60
2023/10/15 02:03:01;;;;;;;2.45;1.50;;;;;;;;;;4846735;29;20897;-60
2023/10/15 02:05:41;;;;;;;5.28;1.60;;;;;;;;;;4851080;29;20461;-60
2023/10/15 02:08:12;;;;;;;6.32;1.52;;;;;;;;;;4836574;29;20492;-60
2023/10/15 02:10:46;;;;;;;1.95;1.63;;;;;;;;;;4850151;29;20502;-60
2023/10/15 02:13:17;;;;;;;3.90;1.50;;;;;;;;;;4845163;29;20453;-60
2023/10/15 02:15:49;;;;;;;5.72;1.42;;;;;;;;;;4860786;29;20527;-60
2023/10/15 02:18:20;;;;;;;5.60;1.52;;;;;;;;;;4917436;29;20446;-60
2023/10/15 02:23:20;;;;;;;5.45;1.58;;;;;;;;;;4925186;29;20444;-61
2023/10/15 02:26:06;;;;;;;5.72;1.40;;;;;;;;;;4919173;29;20449;-60
2023/10/15 02:28:39;;;;;;;4.60;1.55;;;;;;;;;;4923764;29;20474;-60
2023/10/15 02:33:38;;;;;;;3.40;1.50;;;;;;;;;;4915860;29;20441;-60
2023/10/15 02:36:09;;;;;;;3.38;1.30;;;;;;;;;;4919180;29;20455;-60
2023/10/15 02:38:38;;;;;;;5.63;1.58;;;;;;;;;;4924121;29;20503;-60
2023/10/15 02:41:11;;;;;;;2.33;1.30;;;;;;;;;;4914487;29;20524;-60
2023/10/15 02:43:46;;;;;;;2.70;1.30;;;;;;;;;;4927492;29;20446;-60
2023/10/15 02:46:22;;;;;;;3.17;1.40;;;;;;;;;;4927334;29;20450;-60
2023/10/15 02:48:55;;;;;;;4.67;1.10;;;;;;;;;;4922474;29;20442;-60
2023/10/15 02:51:23;;;;;;;2.92;1.60;;;;;;;;;;4923371;29;20439;-60
2023/10/15 02:54:01;;;;;;;3.00;1.23;;;;;;;;;;4930321;29;20439;-60
2023/10/15 02:56:31;;;;;;;3.78;1.27;;;;;;;;;;4924909;29;20443;-60
2023/10/15 02:59:04;;;;;;;4.63;1.40;;;;;;;;;;4923780;29;20442;-60
2023/10/15 03:01:34;;;;;;;3.45;1.52;;;;;;;;;;4930821;29;20450;-60
2023/10/15 03:04:09;;;;;;;3.88;1.42;;;;;;;;;;4924399;29;20443;-60
2023/10/15 03:06:41;;;;;;;1.38;1.15;;;;;;;;;;4930857;29;20443;-60
2023/10/15 03:09:11;;;;;;;2.38;1.48;;;;;;;;;;4926119;29;20539;-61
2023/10/15 03:11:39;;;;;;;1.60;1.50;;;;;;;;;;4927833;29;20524;-61
2023/10/15 03:14:11;;;;;;;3.15;1.10;;;;;;;;;;4926273;29;20439;-61
2023/10/15 03:16:43;;;;;;;3.80;1.40;;;;;;;;;;4920923;29;20522;-61
2023/10/15 03:19:17;;;;;;;3.30;1.40;;;;;;;;;;4928058;29;20566;-60
2023/10/15 03:21:58;;;;;;;4.03;1.50;;;;;;;;;;4923514;29;20471;-60
2023/10/15 03:24:27;;;;;;;7.00;1.90;;;;;;;;;;4924729;29;20446;-61
2023/10/15 03:26:56;;;;;;;2.77;1.60;;;;;;;;;;4920359;29;20959;-61
2023/10/15 03:29:23;;;;;;;3.42;1.75;;;;;;;;;;4921289;29;20542;-61
2023/10/15 03:32:02;;;;;;;2.10;1.25;;;;;;;;;;4920918;29;20523;-60
2023/10/15 03:34:29;;;;;;;6.20;1.58;;;;;;;;;;4919395;29;20519;-61
2023/10/15 03:37:13;;;;;;;4.15;1.70;;;;;;;;;;4920781;29;20800;-61
2023/10/15 03:44:44;;;;;;;3.63;1.15;;;;;;;;;;4923463;29;21504;-61
2023/10/15 03:47:13;;;;;;;6.65;1.80;;;;;;;;;;4927114;29;20440;-61
2023/10/15 03:49:41;;;;;;;3.00;1.70;;;;;;;;;;4924025;29;20479;-61
2023/10/15 03:52:09;;;;;;;6.97;1.60;;;;;;;;;;4918705;29;20453;-61
2023/10/15 03:54:38;;;;;;;3.90;1.60;;;;;;;;;;4924395;29;20447;-61
2023/10/15 03:57:11;;;;;;;5.88;1.55;;;;;;;;;;4923208;29;20439;-61
2023/10/15 03:59:45;;;;;;;3.92;1.33;;;;;;;;;;4922447;29;20800;-61
2023/10/15 04:02:22;;;;;;;3.00;1.27;;;;;;;;;;4923512;29;20445;-61
2023/10/15 04:05:00;;;;;;;2.72;1.42;;;;;;;;;;4922450;29;20470;-61
2023/10/15 04:07:30;;;;;;;4.03;1.53;;;;;;;;;;4930856;29;20835;-60
2023/10/15 04:09:58;;;;;;;2.60;1.20;;;;;;;;;;4916505;29;20550;-60
2023/10/15 04:12:30;;;;;;;4.78;1.40;;;;;;;;;;4924500;29;20435;-60
2023/10/15 04:15:14;;;;;;;5.00;1.60;;;;;;;;;;4924275;29;20482;-60
2023/10/15 04:17:44;;;;;;;4.70;1.75;;;;;;;;;;4920294;29;20538;-60
2023/10/15 04:20:15;;;;;;;1.63;1.30;;;;;;;;;;4922821;29;20474;-60
2023/10/15 04:22:47;;;;;;;3.00;1.27;;;;;;;;;;4905264;29;20496;-60
2023/10/15 04:25:33;;;;;;;5.45;1.80;;;;;;;;;;4922223;29;20450;-60
2023/10/15 04:28:14;;;;;;;5.00;1.60;;;;;;;;;;4916915;29;20440;-60
2023/10/15 04:30:42;;;;;;;5.45;1.67;;;;;;;;;;4920604;29;20507;-60
2023/10/15 04:33:15;;;;;;;6.80;1.52;;;;;;;;;;4919143;29;20457;-60
2023/10/15 04:35:42;;;;;;;5.47;1.70;;;;;;;;;;4920068;29;20485;-60
2023/10/15 04:38:21;;;;;;;9.03;1.50;;;;;;;;;;4929659;29;20436;-60
2023/10/15 04:43:28;;;;;;;4.28;1.70;;;;;;;;;;4919460;29;20445;-60
2023/10/15 04:45:57;;;;;;;2.92;1.77;;;;;;;;;;4920804;29;20453;-60
2023/10/15 04:48:29;;;;;;;4.93;1.53;;;;;;;;;;4925257;29;20439;-61
2023/10/15 04:51:11;;;;;;;3.00;1.10;;;;;;;;;;4914893;29;21015;-60
2023/10/15 04:53:48;;;;;;;4.22;1.30;;;;;;;;;;4922101;29;20472;-60
2023/10/15 04:56:15;;;;;;;3.50;1.23;;;;;;;;;;4917330;29;20485;-60
2023/10/15 04:58:43;;;;;;;3.03;1.23;;;;;;;;;;4911462;29;20535;-60
2023/10/15 05:01:10;;;;;;;7.25;1.67;;;;;;;;;;4918856;29;20528;-60
2023/10/15 05:03:38;;;;;;;1.33;1.23;;;;;;;;;;4917236;29;20441;-60
2023/10/15 05:06:10;;;;;;;2.53;1.30;;;;;;;;;;4921294;29;20581;-60
2023/10/15 05:08:40;;;;;;;3.58;1.75;;;;;;;;;;4915905;29;20506;-60
2023/10/15 05:11:11;;;;;;;7.32;1.90;;;;;;;;;;4926936;29;20586;-60
2023/10/15 05:13:42;;;;;;;4.60;1.85;;;;;;;;;;4922697;29;20462;-60
2023/10/15 05:16:09;;;;;;;8.85;1.77;;;;;;;;;;4914577;29;20444;-60
2023/10/15 05:18:36;;;;;;;6.47;1.80;;;;;;;;;;4924884;29;20635;-60
2023/10/15 05:21:06;;;;;;;6.25;1.70;;;;;;;;;;4919663;29;20432;-60
2023/10/15 05:23:34;;;;;;;6.03;1.58;;;;;;;;;;4918620;29;20439;-60
2023/10/15 05:26:01;;;;;;;10.60;1.98;;;;;;;;;;4926169;29;20443;-60
2023/10/15 05:28:29;;;;;;;6.32;1.58;;;;;;;;;;4923309;29;20443;-60
2023/10/15 05:31:00;;;;;;;3.58;1.50;;;;;;;;;;4921433;29;20578;-60
2023/10/15 05:33:28;;;;;;;4.45;1.92;;;;;;;;;;4917036;29;20524;-60
2023/10/15 05:35:56;;;;;;;6.23;1.97;;;;;;;;;;4922108;29;20450;-60
2023/10/15 05:38:30;;;;;;;6.03;1.85;;;;;;;;;;4920941;29;20443;-61
2023/10/15 05:41:00;;;;;;;9.07;2.27;;;;;;;;;;4919188;29;20519;-60
2023/10/15 05:43:27;;;;;;;7.75;2.35;;;;;;;;;;4929524;29;20921;-60
2023/10/15 05:45:55;;;;;;;3.50;1.90;;;;;;;;;;4919161;29;20558;-62
2023/10/15 05:48:22;;;;;;;4.32;1.90;;;;;;;;;;4924211;29;20459;-60
2023/10/15 05:50:50;;;;;;;5.63;2.00;;;;;;;;;;4927085;29;20522;-60
2023/10/15 05:53:17;;;;;;;6.50;2.20;;;;;;;;;;4920412;29;20437;-60
2023/10/15 05:55:45;;;;;;;3.45;2.20;;;;;;;;;;4923465;29;20443;-60
2023/10/15 05:58:12;;;;;;;5.88;1.98;;;;;;;;;;4917633;29;20959;-60
2023/10/15 06:00:39;;;;;;;4.22;2.00;;;;;;;;;;4921633;29;20451;-60
2023/10/15 06:03:10;;;;;;;7.05;2.22;;;;;;;;;;4924657;29;20543;-61
2023/10/15 06:05:39;;;;;;;9.35;2.33;;;;;;;;;;4913907;29;20445;-60
2023/10/15 06:08:07;;;;;;;5.80;3.03;;;;;;;;;;4926815;29;20501;-61
2023/10/15 06:10:34;;;;;;;5.45;2.58;;;;;;;;;;4918647;29;20442;-61
2023/10/15 06:13:02;;;;;;;4.93;2.35;;;;;;;;;;4925662;29;20470;-61
2023/10/15 06:15:33;;;;;;;3.97;1.90;;;;;;;;;;4921025;29;20454;-61
2023/10/15 06:18:03;;;;;;;6.70;1.95;;;;;;;;;;4923274;29;20435;-61
2023/10/15 06:20:31;;;;;;;5.95;2.15;;;;;;;;;;4932480;29;20767;-61
2023/10/15 06:23:03;;;;;;;5.85;1.92;;;;;;;;;;4930912;29;20443;-61
2023/10/15 06:25:35;;;;;;;6.40;2.30;;;;;;;;;;4925240;29;20934;-60
2023/10/15 06:28:06;;;;;;;7.45;1.95;;;;;;;;;;4924163;29;20438;-60
2023/10/15 06:30:33;;;;;;;7.43;2.13;;;;;;;;;;4932808;29;20474;-60
2023/10/15 06:33:00;;;;;;;5.80;2.08;;;;;;;;;;4923134;29;20555;-60
2023/10/15 06:35:27;;;;;;;4.10;1.70;;;;;;;;;;4922298;29;20432;-60
2023/10/15 06:37:57;;;;;;;8.10;1.70;;;;;;;;;;4921157;29;20919;-60
2023/10/15 06:40:31;;;;;;;1.58;1.23;;;;;;;;;;4921913;29;20447;-60
2023/10/15 06:43:02;;;;;;;211.63;192.77;;;;;;;;;;4922261;29;20435;-60
2023/10/15 06:45:30;;;;;;;274.13;248.32;;;;;;;;;;4924386;29;20463;-61
2023/10/15 06:47:57;;;;;;;89.35;80.18;;;;;;;;;;4928675;29;20439;-60
2023/10/15 06:50:25;;;;;;;308.80;278.65;;;;;;;;;;4918170;29;20982;-61
2023/10/15 06:52:57;;;;;;;85.55;78.82;;;;;;;;;;4920184;29;20447;-60
2023/10/15 06:55:24;;;;;;;173.70;160.27;;;;;;;;;;4924396;29;20447;-60
2023/10/15 06:57:51;;;;;;;352.20;318.33;;;;;;;;;;4931542;29;20794;-61
2023/10/15 07:00:22;;;;;;;291.02;265.00;;;;;;;;;;4923582;29;20451;-60
2023/10/15 07:02:53;;;;;;;564.72;483.02;;;;;;;;;;4914148;29;20525;-61
2023/10/15 07:05:23;;;;;;;439.63;396.85;;;;;;;;;;4921400;29;20527;-60
2023/10/15 07:07:51;;;;;;;372.50;337.35;;;;;;;;;;4927811;29;20442;-60
2023/10/15 07:10:18;;;;;;;574.03;516.42;;;;;;;;;;4921505;29;20479;-61
2023/10/15 07:12:51;;;;;;;403.77;365.35;;;;;;;;;;4926110;29;21070;-61
2023/10/15 07:15:23;;;;;;;375.77;340.23;;;;;;;;;;4919220;29;20441;-61
2023/10/15 07:17:51;;;;;;;357.15;324.00;;;;;;;;;;4921296;29;20490;-61
2023/10/15 07:20:21;;;;;;;421.43;380.33;;;;;;;;;;4927190;29;20435;-61
2023/10/15 07:22:49;;;;;;;324.15;294.80;;;;;;;;;;4927874;29;20435;-61
2023/10/15 07:25:17;;;;;;;488.08;440.30;;;;;;;;;;4918160;29;20482;-61
2023/10/15 07:27:45;;;;;;;494.57;445.73;;;;;;;;;;4912642;29;21012;-61
2023/10/15 07:30:14;;;;;;;249.23;228.57;;;;;;;;;;4928399;29;20439;-60
2023/10/15 07:32:42;;;;;;;323.00;294.17;;;;;;;;;;4920962;29;20449;-61
2023/10/15 07:35:14;;;;;;;322.30;293.27;;;;;;;;;;4917364;29;20449;-61
2023/10/15 07:37:42;;;;;;;530.03;476.75;;;;;;;;;;4912305;29;20431;-61
2023/10/15 07:40:18;;;;;;;324.87;295.23;;;;;;;;;;4920793;29;20439;-61
2023/10/15 07:42:50;;;;;;;381.92;346.17;;;;;;;;;;4919683;29;20447;-62
2023/10/15 07:45:18;;;;;;;239.30;219.80;;;;;;;;;;4915947;29;20531;-61
2023/10/15 07:47:45;;;;;;;243.27;223.00;;;;;;;;;;4930085;29;20439;-61
2023/10/15 07:50:16;;;;;;;338.60;307.30;;;;;;;;;;4924602;29;20516;-61
2023/10/15 07:52:45;;;;;;;198.88;182.82;;;;;;;;;;4928004;29;20611;-61
2023/10/15 07:55:13;;;;;;;250.63;229.65;;;;;;;;;;4920139;29;20803;-61
2023/10/15 07:57:41;;;;;;;185.10;171.07;;;;;;;;;;4918348;29;20437;-61
2023/10/15 08:00:09;;;;;;;198.95;182.77;;;;;;;;;;4917922;29;20433;-61
2023/10/15 08:02:39;;;;;;;21.88;20.58;;;;;;;;;;4921240;29;20444;-62
2023/10/15 08:05:07;;;;;;;4.45;1.88;;;;;;;;;;4923460;29;20445;-61
2023/10/15 08:07:41;;;;;;;2.65;1.50;;;;;;;;;;4917661;29;20715;-61
2023/10/15 08:10:09;;;;;;;75.45;70.43;;;;;;;;;;4919572;29;20451;-61
2023/10/15 08:12:36;;;;;;;351.88;320.23;;;;;;;;;;4918394;29;20449;-61
2023/10/15 08:15:04;;;;;;;417.63;377.90;;;;;;;;;;4926278;29;20533;-60
2023/10/15 08:17:31;;;;;;;350.90;319.07;;;;;;;;;;4923745;29;20447;-60
2023/10/15 08:19:59;;;;;;;320.23;291.55;;;;;;;;;;4919778;29;20610;-61
2023/10/15 08:22:28;;;;;;;340.27;309.45;;;;;;;;;;4923110;29;20500;-60
2023/10/15 08:24:58;;;;;;;253.45;232.35;;;;;;;;;;4929239;29;20447;-61
2023/10/15 08:27:26;;;;;;;256.35;235.15;;;;;;;;;;4926867;29;20473;-60
2023/10/15 08:29:53;;;;;;;224.98;206.90;;;;;;;;;;4926080;29;20461;-60
2023/10/15 08:32:20;;;;;;;192.82;177.93;;;;;;;;;;4923913;29;20458;-60
2023/10/15 08:34:48;;;;;;;130.63;121.67;;;;;;;;;;4926115;29;20474;-61
2023/10/15 08:37:16;;;;;;;114.60;107.30;;;;;;;;;;4920089;29;20481;-60
2023/10/15 08:39:43;;;;;;;54.38;50.85;;;;;;;;;;4921545;29;20919;-60
2023/10/15 08:42:20;;;;;;;64.32;60.35;;;;;;;;;;4903360;29;20577;-60
2023/10/15 08:44:49;;;;;;;60.23;56.50;;;;;;;;;;4919874;29;20631;-60
2023/10/15 08:47:19;;;;;;;29.90;27.95;;;;;;;;;;4896843;29;20833;-60
2023/10/15 08:49:52;;;;;;;32.00;29.90;;;;;;;;;;4921561;29;20530;-60
2023/10/15 08:52:34;;;;;;;27.50;25.80;;;;;;;;;;4917706;29;20473;-60
2023/10/15 08:55:06;;;;;;;13.80;13.00;;;;;;;;;;4926751;29;20947;-62
2023/10/15 08:57:34;;;;;;;33.67;31.63;;;;;;;;;;4929321;29;20447;-60
2023/10/15 09:00:04;;;;;;;95.55;89.25;;;;;;;;;;4921656;29;20443;-60
2023/10/15 09:02:49;;;;;;;122.80;114.67;;;;;;;;;;4919089;29;20444;-60
2023/10/15 09:05:16;;;;;;;187.32;171.93;;;;;;;;;;4914824;29;20452;-60
2023/10/15 09:07:47;;;;;;;193.13;178.43;;;;;;;;;;4900778;29;20532;-60
2023/10/15 09:10:15;;;;;;;124.30;115.97;;;;;;;;;;4919601;29;20471;-60
2023/10/15 09:12:42;;;;;;;120.47;112.63;;;;;;;;;;4922731;29;20510;-60
2023/10/15 09:15:18;;;;;;;210.70;194.55;;;;;;;;;;4920722;29;20464;-61
2023/10/15 09:17:58;;;;;;;155.88;144.73;;;;;;;;;;4917644;29;20916;-60
2023/10/15 09:20:27;;;;;;;5.93;5.63;;;;;;;;;;4926479;29;20443;-61
2023/10/15 09:23:01;;;;;;;4.38;1.33;;;;;;;;;;4916972;29;20472;-61
2023/10/15 09:25:30;;;;;;;1.10;1.00;;;;;;;;;;4908331;29;20456;-60
2023/10/15 09:27:59;;;;;;;3.70;1.15;;;;;;;;;;4918406;29;20478;-60
2023/10/15 09:30:27;;;;;;;319.95;292.33;;;;;;;;;;4920998;29;20443;-60
2023/10/15 09:32:54;;;;;;;109.47;101.90;;;;;;;;;;4921511;29;21003;-60
2023/10/15 09:35:25;;;;;;;323.63;296.13;;;;;;;;;;4918154;29;21157;-60
2023/10/15 09:37:56;;;;;;;267.00;245.33;;;;;;;;;;4920649;29;20477;-60
2023/10/15 09:40:35;;;;;;;23.05;21.67;;;;;;;;;;4928422;29;20479;-60
2023/10/15 09:43:08;;;;;;;28.80;27.13;;;;;;;;;;4925702;29;20447;-60
2023/10/15 09:45:35;;;;;;;34.10;31.73;;;;;;;;;;4919198;29;20522;-61
2023/10/15 09:48:02;;;;;;;49.53;46.40;;;;;;;;;;4919470;29;20497;-59
2023/10/15 09:50:38;;;;;;;1.02;0.90;;;;;;;;;;4920332;29;20449;-60
2023/10/15 09:53:12;;;;;;;1.40;1.30;;;;;;;;;;4914541;29;20441;-60
2023/10/15 09:55:40;;;;;;;12.05;11.48;;;;;;;;;;4911969;29;20441;-60
2023/10/15 09:58:12;;;;;;;2.50;2.40;;;;;;;;;;4920482;29;20447;-60
2023/10/15 10:03:39;;;;;;;2.20;0.60;;;;;;;;;;4918852;29;20463;-60
2023/10/15 10:06:17;;;;;;;2.20;2.10;;;;;;;;;;4921377;29;20852;-60
2023/10/15 10:08:44;;;;;;;508.83;464.98;;;;;;;;;;4920239;29;20502;-60
2023/10/15 10:11:17;;;;;;;134.32;124.25;;;;;;;;;;4921378;29;20466;-60
2023/10/15 10:13:53;;;;;;;152.73;140.40;;;;;;;;;;4923619;29;20455;-61
2023/10/15 10:16:26;;;;;;;4.75;4.55;;;;;;;;;;4899820;29;20445;-60
2023/10/15 10:18:55;;;;;;;22.15;20.65;;;;;;;;;;4927747;29;20525;-61
2023/10/15 10:21:22;;;;;;;59.63;56.03;;;;;;;;;;4927097;29;22024;-61
2023/10/15 10:23:53;;;;;;;50.97;47.93;;;;;;;;;;4916116;29;20451;-61
2023/10/15 10:26:20;;;;;;;147.05;135.27;;;;;;;;;;4919177;29;20446;-61
2023/10/15 10:28:48;;;;;;;500.47;459.17;;;;;;;;;;4926067;29;20540;-61
2023/10/15 10:31:18;;;;;;;50.08;46.95;;;;;;;;;;4901610;29;20446;-60
2023/10/15 10:33:50;;;;;;;3.65;3.47;;;;;;;;;;4920337;29;20553;-60
2023/10/15 10:36:21;;;;;;;3.05;2.95;;;;;;;;;;4924149;29;20451;-61
2023/10/15 10:39:07;;;;;;;3.50;2.40;;;;;;;;;;4903963;29;20473;-61
2023/10/15 10:41:37;;;;;;;2.90;2.70;;;;;;;;;;4919193;29;20471;-60
2023/10/15 10:44:34;;;;;;;5.73;5.47;;;;;;;;;;4919914;29;20454;-61
2023/10/15 10:47:16;;;;;;;2.00;0.90;;;;;;;;;;4922078;29;20431;-61
2023/10/15 10:49:55;;;;;;;1.33;1.13;;;;;;;;;;4917142;29;20530;-60
2023/10/15 10:52:36;;;;;;;1.60;1.50;;;;;;;;;;4925736;29;20446;-61
2023/10/15 10:55:22;;;;;;;2.60;1.42;;;;;;;;;;4926702;29;20444;-62
2023/10/15 10:57:54;;;;;;;1.08;1.00;;;;;;;;;;4916420;29;20975;-61
2023/10/15 11:00:21;;;;;;;1.42;0.70;;;;;;;;;;4920430;29;20519;-60
2023/10/15 11:02:48;;;;;;;6.28;6.07;;;;;;;;;;4923957;29;20460;-60
2023/10/15 11:05:18;;;;;;;3.72;3.53;;;;;;;;;;4920503;29;20451;-60
2023/10/15 11:07:48;;;;;;;2.13;2.03;;;;;;;;;;4920904;29;20530;-59
2023/10/15 11:10:17;;;;;;;1.10;0.95;;;;;;;;;;4920470;29;20445;-63
2023/10/15 11:12:47;;;;;;;2.40;2.10;;;;;;;;;;4919485;29;20485;-62
2023/10/15 11:15:14;;;;;;;0.68;0.60;;;;;;;;;;4928785;29;20469;-62
2023/10/15 11:18:04;;;;;;;0.90;0.70;;;;;;;;;;4925128;29;20542;-62
2023/10/15 11:20:33;;;;;;;221.27;202.07;;;;;;;;;;4907280;29;20443;-60
2023/10/15 11:23:01;;;;;;;114.88;105.22;;;;;;;;;;4930654;29;20768;-60
2023/10/15 11:25:29;;;;;;;2.03;1.15;;;;;;;;;;4917124;29;20435;-61
2023/10/15 11:28:02;;;;;;;1.20;1.20;;;;;;;;;;4906681;29;20535;-61
2023/10/15 11:30:29;;;;;;;20.95;19.83;;;;;;;;;;4927294;29;20494;-61
2023/10/15 11:32:57;;;;;;;94.55;88.70;;;;;;;;;;4930269;29;20535;-61
2023/10/15 11:35:24;;;;;;;2.95;2.85;;;;;;;;;;4914065;29;20445;-60
2023/10/15 11:37:51;;;;;;;11.13;10.37;;;;;;;;;;4925758;29;20522;-61
2023/10/15 11:40:26;;;;;;;3.25;3.05;;;;;;;;;;4927588;29;20535;-60
2023/10/15 11:42:54;;;;;;;5.00;2.28;;;;;;;;;;4926847;29;20474;-61
2023/10/15 11:45:31;;;;;;;17.50;16.13;;;;;;;;;;4922938;29;20439;-60
2023/10/15 11:47:58;;;;;;;27.63;25.90;;;;;;;;;;4918534;29;20505;-60
2023/10/15 11:50:27;;;;;;;15.77;14.88;;;;;;;;;;4927548;29;21128;-60
2023/10/15 11:52:58;;;;;;;59.92;56.28;;;;;;;;;;4930130;29;20444;-60
2023/10/15 11:55:31;;;;;;;0.85;0.50;;;;;;;;;;4920983;29;20443;-61
2023/10/15 11:58:10;;;;;;;2.35;0.50;;;;;;;;;;4919981;29;20460;-61
2023/10/15 12:00:39;;;;;;;3.90;0.60;;;;;;;;;;4913878;29;20456;-60
2023/10/15 12:03:09;;;;;;;2.47;1.93;;;;;;;;;;4900186;29;20445;-62
2023/10/15 12:05:37;;;;;;;89.03;82.82;;;;;;;;;;4925814;29;20518;-61
2023/10/15 12:08:05;;;;;;;27.00;24.88;;;;;;;;;;4924159;29;20499;-61
2023/10/15 12:10:35;;;;;;;49.80;46.30;;;;;;;;;;4924579;29;20452;-62
2023/10/15 12:13:02;;;;;;;85.65;78.43;;;;;;;;;;4921315;29;20542;-61
2023/10/15 12:15:37;;;;;;;22.42;21.00;;;;;;;;;;4928237;29;20450;-61
2023/10/15 12:18:04;;;;;;;0.25;0.20;;;;;;;;;;4929435;29;20922;-61
2023/10/15 12:20:32;;;;;;;95.18;86.40;;;;;;;;;;4928982;29;20495;-61
2023/10/15 12:23:00;;;;;;;149.73;139.23;;;;;;;;;;4905527;29;20518;-60
2023/10/15 12:25:27;;;;;;;38.42;36.42;;;;;;;;;;4915165;29;20472;-60
2023/10/15 12:27:55;;;;;;;88.10;82.57;;;;;;;;;;4919777;29;20540;-62
2023/10/15 12:30:28;;;;;;;167.60;156.17;;;;;;;;;;4903237;29;20443;-61
2023/10/15 12:33:00;;;;;;;439.45;397.85;;;;;;;;;;4924009;29;20447;-61
2023/10/15 12:35:31;;;;;;;277.65;255.05;;;;;;;;;;4919919;29;20512;-62
2023/10/15 12:38:01;;;;;;;617.93;557.13;;;;;;;;;;4905589;29;20500;-61
2023/10/15 12:40:32;;;;;;;480.58;436.65;;;;;;;;;;4919642;29;20441;-62
2023/10/15 12:43:08;;;;;;;240.77;222.40;;;;;;;;;;4922438;29;20519;-59
2023/10/15 12:45:36;;;;;;;366.25;334.67;;;;;;;;;;4922818;29;20573;-60
2023/10/15 12:48:11;;;;;;;501.05;455.35;;;;;;;;;;4895892;29;20468;-61
2023/10/15 12:50:38;;;;;;;709.60;638.53;;;;;;;;;;4909977;29;20504;-60
2023/10/15 12:53:06;;;;;;;702.63;640.03;;;;;;;;;;4908084;29;20447;-60
2023/10/15 12:55:34;;;;;;;605.75;552.47;;;;;;;;;;4904167;29;20938;-60
2023/10/15 12:58:02;;;;;;;731.20;668.22;;;;;;;;;;4922413;29;20439;-60
2023/10/15 13:00:32;;;;;;;859.47;772.97;;;;;;;;;;4916372;29;20795;-60
2023/10/15 13:03:00;;;;;;;751.97;689.72;;;;;;;;;;4914999;29;20468;-60
2023/10/15 13:05:27;;;;;;;481.48;439.70;;;;;;;;;;4913494;29;20530;-60
2023/10/15 13:07:56;;;;;;;414.73;380.35;;;;;;;;;;4918640;29;20450;-60
2023/10/15 13:10:24;;;;;;;443.98;405.77;;;;;;;;;;4919951;29;20532;-59
2023/10/15 13:12:52;;;;;;;337.13;310.45;;;;;;;;;;4919732;29;20443;-60
2023/10/15 13:15:21;;;;;;;875.22;800.03;;;;;;;;;;4912546;29;20443;-60
2023/10/15 13:17:56;;;;;;;929.40;838.72;;;;;;;;;;4919157;29;20442;-60
2023/10/15 13:20:26;;;;;;;946.90;849.03;;;;;;;;;;4928567;29;20605;-61
2023/10/15 13:22:54;;;;;;;966.70;871.88;;;;;;;;;;4916265;29;20550;-61
2023/10/15 13:25:22;;;;;;;275.30;253.23;;;;;;;;;;4915364;29;20491;-61
2023/10/15 13:27:49;;;;;;;322.55;297.08;;;;;;;;;;4923176;29;20444;-61
2023/10/15 13:30:17;;;;;;;711.65;653.40;;;;;;;;;;4907189;29;20475;-61
2023/10/15 13:32:45;;;;;;;175.52;163.63;;;;;;;;;;4918568;29;20479;-61
2023/10/15 13:35:13;;;;;;;10.48;9.77;;;;;;;;;;4924566;29;20447;-60
2023/10/15 13:37:44;;;;;;;2.50;2.40;;;;;;;;;;4918977;29;20444;-60
2023/10/15 13:40:12;;;;;;;5.78;5.45;;;;;;;;;;4921199;29;20478;-60
2023/10/15 13:42:42;;;;;;;60.83;56.80;;;;;;;;;;4928327;29;20516;-62
2023/10/15 13:45:10;;;;;;;124.47;115.85;;;;;;;;;;4921305;29;20443;-61
2023/10/15 13:47:38;;;;;;;251.27;232.67;;;;;;;;;;4916505;29;20448;-61
2023/10/15 13:50:06;;;;;;;91.45;85.75;;;;;;;;;;4919360;29;20445;-61
2023/10/15 13:52:37;;;;;;;88.80;83.40;;;;;;;;;;4922036;29;20536;-61
2023/10/15 13:55:05;;;;;;;160.65;149.25;;;;;;;;;;4920088;29;20973;-61
2023/10/15 13:57:32;;;;;;;427.05;389.95;;;;;;;;;;4926148;29;20443;-61
2023/10/15 13:59:59;;;;;;;164.27;152.93;;;;;;;;;;4921856;29;20469;-61
2023/10/15 14:02:27;;;;;;;93.28;87.57;;;;;;;;;;4917044;29;20442;-61
2023/10/15 14:04:54;;;;;;;57.17;53.75;;;;;;;;;;4923884;29;20436;-61
2023/10/15 14:07:27;;;;;;;3.13;1.75;;;;;;;;;;4924325;29;20805;-60
2023/10/15 14:09:58;;;;;;;151.90;141.77;;;;;;;;;;4920174;29;21212;-61
2023/10/15 14:12:27;;;;;;;13.35;12.65;;;;;;;;;;4918227;29;21110;-61
2023/10/15 14:14:57;;;;;;;2.00;1.60;;;;;;;;;;4925273;29;20467;-61
2023/10/15 14:17:25;;;;;;;32.67;30.40;;;;;;;;;;4919560;29;20540;-61
2023/10/15 14:19:54;;;;;;;278.50;257.70;;;;;;;;;;4921252;29;20446;-61
2023/10/15 14:22:23;;;;;;;274.45;252.25;;;;;;;;;;4905375;29;20989;-61
2023/10/15 14:24:50;;;;;;;539.65;494.05;;;;;;;;;;4922612;29;20442;-61
2023/10/15 14:27:18;;;;;;;357.05;328.48;;;;;;;;;;4925121;29;20968;-61
2023/10/15 14:29:46;;;;;;;218.40;203.10;;;;;;;;;;4903982;29;20435;-61
2023/10/15 14:32:13;;;;;;;65.15;61.08;;;;;;;;;;4927449;29;20439;-59
2023/10/15 14:34:42;;;;;;;103.70;97.17;;;;;;;;;;4918848;29;20440;-59
2023/10/15 14:37:09;;;;;;;352.83;325.05;;;;;;;;;;4928177;29;20443;-59
2023/10/15 14:39:38;;;;;;;108.07;101.23;;;;;;;;;;4925010;29;20526;-59
2023/10/15 14:42:11;;;;;;;111.28;104.13;;;;;;;;;;4926245;29;20447;-59
2023/10/15 14:44:39;;;;;;;92.75;87.03;;;;;;;;;;4924154;29;20451;-62
2023/10/15 14:47:08;;;;;;;81.13;76.13;;;;;;;;;;4926536;29;20539;-61
2023/10/15 14:49:38;;;;;;;112.93;105.78;;;;;;;;;;4929279;29;20960;-60
2023/10/15 14:52:05;;;;;;;53.90;50.72;;;;;;;;;;4925636;29;20491;-61
2023/10/15 14:54:32;;;;;;;296.60;274.15;;;;;;;;;;4931194;29;20470;-59
2023/10/15 14:57:00;;;;;;;462.50;422.92;;;;;;;;;;4930921;29;20534;-59
2023/10/15 14:59:27;;;;;;;530.90;484.48;;;;;;;;;;4923126;29;20791;-59
2023/10/15 15:01:55;;;;;;;385.33;353.92;;;;;;;;;;4919896;29;20439;-60
2023/10/15 15:04:28;;;;;;;324.50;299.52;;;;;;;;;;4921497;29;20435;-60
2023/10/15 15:06:55;;;;;;;127.35;119.15;;;;;;;;;;4924513;29;20441;-59
2023/10/15 15:09:23;;;;;;;148.43;138.70;;;;;;;;;;4926140;29;20467;-60
2023/10/15 15:11:51;;;;;;;358.65;329.20;;;;;;;;;;4921982;29;20914;-59